Charles Town, WV (25414)

12:56 PM EDT on September 22, 2014 (GMT -0400)
Ranson, West Virginia | Change Station
CLOSE
Current Station
Personal Weather Station
Location: Ranson, WV
Elevation: 531 ft
Nearby Weather Stations

Elev 531 ft 39.30 °N, 77.87 °W | Updated 23 seconds ago

Mostly Cloudy
Mostly Cloudy
67.8 °F
Feels Like 67.8 °F
N
0.0
Wind Variable Wind from East
Gusts 0.0 mph

Today
High -- | Low -- °F
--% Chance of Precip.
Yesterday
High -- | Low -- °F
Precip. -- in
6:59 AM 7:08 PM
Waning Crescent, 2% visible
Pressure 30.07 in
Visibility 10.0 miles
Clouds Mostly Cloudy 4200 ft
Dew Point 45 °F
Humidity 44%
Rainfall 0.00 in
Snow Depth Not available.
UV 4 out of 12
Pollen 4.60 out of 12
Air Quality Not available.
Flu Activity Not available.
METAR KMRB 221553Z 32013G18KT 10SM BKN042 19/06 A3008 RMK AO2 SLP181 T01890061

More Conditions Fewer Conditions

Pressure 30.07 in
Visibility 10.0 miles
Clouds Mostly Cloudy 4200 ft
Dew Point 45 °F
Humidity 44%
Rainfall 0.00 in
Snow Depth Not available.
UV 4 out of 12
Pollen 4.60 out of 12
Air Quality Not available.
Flu Activity Not available.
METAR KMRB 221553Z 32013G18KT 10SM BKN042 19/06 A3008 RMK AO2 SLP181 T01890061

More Conditions Fewer Conditions

10-Day Weather Forecast

Almanac

Astronomy

Sep. 22, 2014 Rise Set
Actual Time 6:59 AM EDT 7:08 PM EDT
Civil Twilight 6:32 AM EDT 7:35 PM EDT
Nautical Twilight 6:01 AM EDT 8:06 PM EDT
Astronomical Twilight 5:29 AM EDT 8:38 PM EDT
Moon 5:26 AM EDT 6:14 PM EDT
Length of Visible Light 13h 02m
Length of Day
12h 09m
Tomorrow will be 2m 33s shorter.
Waning Crescent, 2% of the Moon is Illuminated
Today
Waning Crescent
Sep 24
New
Oct 1
First Quarter
Oct 8
Full
Oct 15
Last Quarter

Today's Extremes

State Highs State Lows

Community

WunderPhotos

Upload Photos

1,755,480 photos uploaded!

WunderBlogs® & News

Nearby

Snow Depth

Station Depth Elevation
No new snow has been reported.

Earthquake Activity

City Distance Mag. Time & Date
No recent earthquake activity has been reported nearby.
Minimum magnitude displayed is 2.5.

Coastal Water Temperatures

Place Temperature
No Stations Reporting

Nearby Weather Stations